Babb, Montana
Current Conditions -  °F | °C
As of 11:56 PM on Thursday 30 Oct 2014 (Local Time) from KCTB Reporting Station
Clear Clear  
Wind Chill: 28°   Ceiling: Unl
Heat Index: 36°   Visibility: 10mi
Dew Point: 33°   Wind: 10mph
Humidity: 89%   Direction: 120°ESE
Pressure: 30"   Gusts: NA
Location:  48.85°N, 113.44°W
Report Text: KCTB 310556Z AUTO 12009KT 10SM CLR 02/01 A3000 RMK AO2 SLP170 T00220006 10100 20022 58021
Loading
Personal Weather Stations






























Interactive Weather Map New forecast layout! Learn more

10-Day Weather Forecast

Advertisements
Track Severe Weather on mobile